sensor_id;sensor_type;location;lat;lon;timestamp;pressure;altitude;pressure_sealevel;temperature;humidity
18569;BME280;14780;48.316;-1.050;2023-02-20T00:01:56;100401.69;;;24.53;35.61
18569;BME280;14780;48.316;-1.050;2023-02-20T00:04:41;100410.13;;;24.51;35.66
18569;BME280;14780;48.316;-1.050;2023-02-20T00:07:26;100404.66;;;24.51;35.59
18569;BME280;14780;48.316;-1.050;2023-02-20T00:10:11;100402.50;;;24.53;35.50
18569;BME280;14780;48.316;-1.050;2023-02-20T00:12:56;100399.19;;;24.51;35.57
18569;BME280;14780;48.316;-1.050;2023-02-20T00:15:40;100403.56;;;24.52;35.37
18569;BME280;14780;48.316;-1.050;2023-02-20T00:18:25;100401.41;;;24.54;35.48
18569;BME280;14780;48.316;-1.050;2023-02-20T00:21:10;100401.69;;;24.53;35.32
18569;BME280;14780;48.316;-1.050;2023-02-20T00:23:55;100412.34;;;24.54;35.49
18569;BME280;14780;48.316;-1.050;2023-02-20T00:26:48;100410.94;;;24.52;35.44
18569;BME280;14780;48.316;-1.050;2023-02-20T00:29:34;100414.53;;;24.52;35.46
18569;BME280;14780;48.316;-1.050;2023-02-20T00:32:20;100414.41;;;24.47;35.48
18569;BME280;14780;48.316;-1.050;2023-02-20T00:35:05;100408.94;;;24.47;35.49
18569;BME280;14780;48.316;-1.050;2023-02-20T00:37:51;100416.91;;;24.49;35.37
18569;BME280;14780;48.316;-1.050;2023-02-20T00:40:36;100411.44;;;24.49;35.47
18569;BME280;14780;48.316;-1.050;2023-02-20T00:43:21;100412.75;;;24.46;35.36
18569;BME280;14780;48.316;-1.050;2023-02-20T00:46:05;100414.91;;;24.44;35.39
18569;BME280;14780;48.316;-1.050;2023-02-20T00:48:50;100417.06;;;24.42;35.42
18569;BME280;14780;48.316;-1.050;2023-02-20T00:51:35;100418.72;;;24.43;35.31
18569;BME280;14780;48.316;-1.050;2023-02-20T00:54:20;100420.38;;;24.44;35.30
18569;BME280;14780;48.316;-1.050;2023-02-20T00:57:04;100421.69;;;24.42;35.39
18569;BME280;14780;48.316;-1.050;2023-02-20T00:59:49;100413.16;;;24.38;35.38
18569;BME280;14780;48.316;-1.050;2023-02-20T01:02:35;100410.53;;;24.43;35.24
18569;BME280;14780;48.316;-1.050;2023-02-20T01:05:19;100402.03;;;24.45;35.29
18569;BME280;14780;48.316;-1.050;2023-02-20T01:08:05;100399.38;;;24.33;35.27
18569;BME280;14780;48.316;-1.050;2023-02-20T01:10:49;100394.34;;;24.42;35.26
18569;BME280;14780;48.316;-1.050;2023-02-20T01:13:34;100395.31;;;24.36;35.41
18569;BME280;14780;48.316;-1.050;2023-02-20T01:16:19;100385.78;;;24.38;35.37
18569;BME280;14780;48.316;-1.050;2023-02-20T01:19:03;100394.97;;;24.32;35.29
18569;BME280;14780;48.316;-1.050;2023-02-20T01:21:49;100377.97;;;24.30;35.43
18569;BME280;14780;48.316;-1.050;2023-02-20T01:24:34;100379.13;;;24.34;35.21
18569;BME280;14780;48.316;-1.050;2023-02-20T01:27:19;100379.63;;;24.31;35.27
18569;BME280;14780;48.316;-1.050;2023-02-20T01:30:04;100378.31;;;24.34;35.32
18569;BME280;14780;48.316;-1.050;2023-02-20T01:32:49;100376.41;;;24.34;35.33
18569;BME280;14780;48.316;-1.050;2023-02-20T01:35:34;100376.41;;;24.34;35.31
18569;BME280;14780;48.316;-1.050;2023-02-20T01:38:19;100365.97;;;24.31;35.38
18569;BME280;14780;48.316;-1.050;2023-02-20T01:41:04;100378.09;;;24.35;35.27
18569;BME280;14780;48.316;-1.050;2023-02-20T01:43:49;100377.47;;;24.33;35.14
18569;BME280;14780;48.316;-1.050;2023-02-20T01:46:43;100376.41;;;24.34;35.28
18569;BME280;14780;48.316;-1.050;2023-02-20T01:49:59;100380.72;;;24.30;35.11
18569;BME280;14780;48.316;-1.050;2023-02-20T01:52:53;100380.38;;;24.27;35.18
18569;BME280;14780;48.316;-1.050;2023-02-20T01:55:48;100374.66;;;24.28;35.24
18569;BME280;14780;48.316;-1.050;2023-02-20T01:58:43;100370.84;;;24.29;35.16
18569;BME280;14780;48.316;-1.050;2023-02-20T02:01:29;100371.94;;;24.28;35.12
18569;BME280;14780;48.316;-1.050;2023-02-20T02:04:14;100374.91;;;24.27;35.27
18569;BME280;14780;48.316;-1.050;2023-02-20T02:07:00;100370.25;;;24.27;35.17
18569;BME280;14780;48.316;-1.050;2023-02-20T02:10:07;100372.97;;;24.27;35.14
18569;BME280;14780;48.316;-1.050;2023-02-20T02:12:54;100363.13;;;24.26;35.24
18569;BME280;14780;48.316;-1.050;2023-02-20T02:15:39;100371.94;;;24.28;35.19
18569;BME280;14780;48.316;-1.050;2023-02-20T02:34:17;100350.53;;;24.25;35.16
18569;BME280;14780;48.316;-1.050;2023-02-20T02:46:44;100343.97;;;24.26;35.10
18569;BME280;14780;48.316;-1.050;2023-02-20T02:50:00;100337.09;;;24.24;35.11
18569;BME280;14780;48.316;-1.050;2023-02-20T02:52:47;100332.44;;;24.24;35.00
18569;BME280;14780;48.316;-1.050;2023-02-20T02:55:33;100327.81;;;24.25;34.98
18569;BME280;14780;48.316;-1.050;2023-02-20T02:58:18;100329.97;;;24.23;35.04
18569;BME280;14780;48.316;-1.050;2023-02-20T03:01:03;100316.22;;;24.18;35.09
18569;BME280;14780;48.316;-1.050;2023-02-20T03:03:49;100316.03;;;24.24;35.02
18569;BME280;14780;48.316;-1.050;2023-02-20T03:06:40;100313.06;;;24.26;34.94
18569;BME280;14780;48.316;-1.050;2023-02-20T03:09:29;100308.06;;;24.23;35.13
18569;BME280;14780;48.316;-1.050;2023-02-20T03:12:15;100301.78;;;24.22;34.99
18569;BME280;14780;48.316;-1.050;2023-02-20T03:15:07;100296.31;;;24.22;34.95
18569;BME280;14780;48.316;-1.050;2023-02-20T03:18:28;100289.19;;;24.21;34.92
18569;BME280;14780;48.316;-1.050;2023-02-20T03:21:17;100292.50;;;24.23;35.03
18569;BME280;14780;48.316;-1.050;2023-02-20T03:24:04;100283.97;;;24.20;34.96
18569;BME280;14780;48.316;-1.050;2023-02-20T03:26:52;100277.41;;;24.21;35.04
18569;BME280;14780;48.316;-1.050;2023-02-20T03:29:39;100283.13;;;24.19;34.94
18569;BME280;14780;48.316;-1.050;2023-02-20T03:32:25;100280.38;;;24.19;34.94
18569;BME280;14780;48.316;-1.050;2023-02-20T03:35:31;100278.72;;;24.18;35.10
18569;BME280;14780;48.316;-1.050;2023-02-20T03:38:39;100271.38;;;24.19;34.95
18569;BME280;14780;48.316;-1.050;2023-02-20T03:41:45;100270.28;;;24.20;34.89
18569;BME280;14780;48.316;-1.050;2023-02-20T03:44:49;100268.28;;;24.15;35.11
18569;BME280;14780;48.316;-1.050;2023-02-20T03:47:36;100271.03;;;24.15;34.99
18569;BME280;14780;48.316;-1.050;2023-02-20T03:50:22;100271.03;;;24.15;35.00
18569;BME280;14780;48.316;-1.050;2023-02-20T03:53:26;100265.56;;;24.15;34.99
18569;BME280;14780;48.316;-1.050;2023-02-20T03:56:36;100259.25;;;24.15;34.94
18569;BME280;14780;48.316;-1.050;2023-02-20T03:59:34;100259.53;;;24.13;35.04
18569;BME280;14780;48.316;-1.050;2023-02-20T04:02:38;100249.91;;;24.11;35.02
18569;BME280;14780;48.316;-1.050;2023-02-20T04:05:28;100249.38;;;24.14;34.97
18569;BME280;14780;48.316;-1.050;2023-02-20T04:08:20;100240.94;;;24.15;35.03
18569;BME280;14780;48.316;-1.050;2023-02-20T04:13:56;100244.75;;;24.14;34.92
18569;BME280;14780;48.316;-1.050;2023-02-20T04:16:49;100256.19;;;24.11;35.04
18569;BME280;14780;48.316;-1.050;2023-02-20T04:19:34;100253.53;;;24.16;35.02
18569;BME280;14780;48.316;-1.050;2023-02-20T04:22:31;100247.50;;;24.14;34.94
18569;BME280;14780;48.316;-1.050;2023-02-20T04:25:38;100249.63;;;24.12;35.06
18569;BME280;14780;48.316;-1.050;2023-02-20T04:28:26;100254.06;;;24.13;35.00
18569;BME280;14780;48.316;-1.050;2023-02-20T04:31:13;100254.06;;;24.13;34.95
18569;BME280;14780;48.316;-1.050;2023-02-20T04:33:59;100246.91;;;24.12;35.08
18569;BME280;14780;48.316;-1.050;2023-02-20T04:36:44;100245.25;;;24.11;35.02
18569;BME280;14780;48.316;-1.050;2023-02-20T04:39:28;100246.91;;;24.12;35.03
18569;BME280;14780;48.316;-1.050;2023-02-20T04:42:13;100242.28;;;24.13;34.92
18569;BME280;14780;48.316;-1.050;2023-02-20T04:44:58;100227.75;;;24.12;35.06
18569;BME280;14780;48.316;-1.050;2023-02-20T04:47:43;100231.00;;;24.09;35.11
18569;BME280;14780;48.316;-1.050;2023-02-20T04:50:31;100233.22;;;24.12;34.94
18569;BME280;14780;48.316;-1.050;2023-02-20T04:53:16;100238.69;;;24.12;34.93
18569;BME280;14780;48.316;-1.050;2023-02-20T04:56:01;100243.94;;;24.14;35.02
18569;BME280;14780;48.316;-1.050;2023-02-20T04:58:48;100243.94;;;24.14;35.01
18569;BME280;14780;48.316;-1.050;2023-02-20T05:01:33;100238.44;;;24.14;34.98
18569;BME280;14780;48.316;-1.050;2023-02-20T05:04:20;100233.00;;;24.14;35.02
18569;BME280;14780;48.316;-1.050;2023-02-20T05:07:05;100231.56;;;24.11;34.91
18569;BME280;14780;48.316;-1.050;2023-02-20T05:09:50;100230.50;;;24.12;34.98
18569;BME280;14780;48.316;-1.050;2023-02-20T05:12:34;100234.31;;;24.11;34.91
18569;BME280;14780;48.316;-1.050;2023-02-20T05:15:19;100230.75;;;24.11;34.89
18569;BME280;14780;48.316;-1.050;2023-02-20T05:18:04;100225.53;;;24.09;34.97
18569;BME280;14780;48.316;-1.050;2023-02-20T05:20:49;100223.63;;;24.10;34.89
18569;BME280;14780;48.316;-1.050;2023-02-20T05:23:52;100232.66;;;24.10;34.99
18569;BME280;14780;48.316;-1.050;2023-02-20T05:26:37;100230.41;;;24.07;35.05
18569;BME280;14780;48.316;-1.050;2023-02-20T05:29:23;100227.91;;;24.06;34.85
18569;BME280;14780;48.316;-1.050;2023-02-20T05:32:08;100219.97;;;24.04;35.04
18569;BME280;14780;48.316;-1.050;2023-02-20T05:34:52;100228.75;;;24.06;35.00
18569;BME280;14780;48.316;-1.050;2023-02-20T05:37:37;100231.50;;;24.06;35.05
18569;BME280;14780;48.316;-1.050;2023-02-20T05:40:22;100227.41;;;24.09;34.88
18569;BME280;14780;48.316;-1.050;2023-02-20T05:43:06;100233.63;;;24.04;34.96
18569;BME280;14780;48.316;-1.050;2023-02-20T05:45:51;100231.50;;;24.06;35.04
18569;BME280;14780;48.316;-1.050;2023-02-20T05:48:35;100232.31;;;24.07;35.10
18569;BME280;14780;48.316;-1.050;2023-02-20T05:51:26;100230.66;;;24.06;35.09
18569;BME280;14780;48.316;-1.050;2023-02-20T05:54:11;100236.13;;;24.06;35.08
18569;BME280;14780;48.316;-1.050;2023-02-20T05:56:56;100230.31;;;24.02;34.98
18569;BME280;14780;48.316;-1.050;2023-02-20T05:59:40;100229.56;;;24.07;34.96
18569;BME280;14780;48.316;-1.050;2023-02-20T06:02:25;100222.69;;;24.04;34.94
18569;BME280;14780;48.316;-1.050;2023-02-20T06:05:10;100224.34;;;24.05;35.03
18569;BME280;14780;48.316;-1.050;2023-02-20T06:07:55;100236.97;;;24.06;34.89
18569;BME280;14780;48.316;-1.050;2023-02-20T06:10:39;100229.56;;;24.07;35.00
18569;BME280;14780;48.316;-1.050;2023-02-20T06:13:24;100227.00;;;24.00;34.97
18569;BME280;14780;48.316;-1.050;2023-02-20T06:16:10;100230.91;;;24.04;35.05
18569;BME280;14780;48.316;-1.050;2023-02-20T06:18:55;100227.00;;;24.00;35.03
18569;BME280;14780;48.316;-1.050;2023-02-20T06:21:44;100227.34;;;24.04;35.02
18569;BME280;14780;48.316;-1.050;2023-02-20T06:24:29;100228.44;;;24.03;34.89
18569;BME280;14780;48.316;-1.050;2023-02-20T06:27:16;100236.03;;;24.01;35.06
18569;BME280;14780;48.316;-1.050;2023-02-20T06:30:01;100235.22;;;24.00;34.97
18569;BME280;14780;48.316;-1.050;2023-02-20T06:32:45;100224.75;;;23.97;35.03
18569;BME280;14780;48.316;-1.050;2023-02-20T06:35:30;100221.53;;;24.00;34.99
18569;BME280;14780;48.316;-1.050;2023-02-20T06:38:14;100220.34;;;23.96;35.04
18569;BME280;14780;48.316;-1.050;2023-02-20T06:40:59;100214.41;;;23.99;35.08
18569;BME280;14780;48.316;-1.050;2023-02-20T06:43:43;100208.94;;;23.99;34.95
18569;BME280;14780;48.316;-1.050;2023-02-20T06:46:28;100215.22;;;24.00;34.95
18569;BME280;14780;48.316;-1.050;2023-02-20T06:49:12;100214.41;;;23.99;34.99
18569;BME280;14780;48.316;-1.050;2023-02-20T06:51:58;100220.94;;;23.98;34.97
18569;BME280;14780;48.316;-1.050;2023-02-20T06:54:43;100229.13;;;23.98;35.11
18569;BME280;14780;48.316;-1.050;2023-02-20T06:57:30;100230.22;;;23.97;35.04
18569;BME280;14780;48.316;-1.050;2023-02-20T07:00:15;100235.69;;;23.97;35.05
18569;BME280;14780;48.316;-1.050;2023-02-20T07:03:01;100245.31;;;24.00;35.03
18569;BME280;14780;48.316;-1.050;2023-02-20T07:05:45;100250.78;;;24.00;34.99
18569;BME280;14780;48.316;-1.050;2023-02-20T07:08:30;100247.69;;;23.96;35.17
18569;BME280;14780;48.316;-1.050;2023-02-20T07:11:17;100248.28;;;23.98;35.07
18569;BME280;14780;48.316;-1.050;2023-02-20T07:14:03;100252.34;;;23.96;35.19
18569;BME280;14780;48.316;-1.050;2023-02-20T07:16:48;100253.28;;;24.01;35.08
18569;BME280;14780;48.316;-1.050;2023-02-20T07:19:32;100257.56;;;23.97;35.26
18569;BME280;14780;48.316;-1.050;2023-02-20T07:22:17;100252.09;;;23.97;35.28
18569;BME280;14780;48.316;-1.050;2023-02-20T07:25:02;100249.69;;;24.01;35.21
18569;BME280;14780;48.316;-1.050;2023-02-20T07:27:47;100253.50;;;24.00;35.19
18569;BME280;14780;48.316;-1.050;2023-02-20T07:30:32;100253.75;;;23.98;35.14
18569;BME280;14780;48.316;-1.050;2023-02-20T07:33:17;100258.41;;;23.98;35.23
18569;BME280;14780;48.316;-1.050;2023-02-20T07:36:03;100255.66;;;23.98;35.23
18569;BME280;14780;48.316;-1.050;2023-02-20T07:38:59;100254.81;;;23.97;35.19
18569;BME280;14780;48.316;-1.050;2023-02-20T07:41:45;100265.75;;;23.97;35.48
18569;BME280;14780;48.316;-1.050;2023-02-20T07:44:30;100251.00;;;23.98;35.51
18569;BME280;14780;48.316;-1.050;2023-02-20T07:47:14;100256.47;;;23.98;35.37
18569;BME280;14780;48.316;-1.050;2023-02-20T07:49:59;100254.34;;;24.00;35.25
18569;BME280;14780;48.316;-1.050;2023-02-20T07:52:45;100254.81;;;23.97;35.29
18569;BME280;14780;48.316;-1.050;2023-02-20T07:55:30;100267.41;;;23.98;35.08
18569;BME280;14780;48.316;-1.050;2023-02-20T07:58:15;100254.81;;;23.97;35.26
18569;BME280;14780;48.316;-1.050;2023-02-20T08:00:59;100256.75;;;23.97;35.16
18569;BME280;14780;48.316;-1.050;2023-02-20T08:03:45;100262.44;;;23.95;35.22
18569;BME280;14780;48.316;-1.050;2023-02-20T08:06:30;100265.75;;;23.97;35.18
18569;BME280;14780;48.316;-1.050;2023-02-20T08:09:15;100267.06;;;23.95;35.23
18569;BME280;14780;48.316;-1.050;2023-02-20T08:11:59;100273.38;;;23.95;35.19
18569;BME280;14780;48.316;-1.050;2023-02-20T08:14:44;100273.63;;;23.94;35.29
18569;BME280;14780;48.316;-1.050;2023-02-20T08:17:29;100272.88;;;23.98;35.12
18569;BME280;14780;48.316;-1.050;2023-02-20T08:20:15;100272.06;;;23.98;35.24
18569;BME280;14780;48.316;-1.050;2023-02-20T08:23:00;100269.56;;;23.96;35.17
18569;BME280;14780;48.316;-1.050;2023-02-20T08:25:45;100267.91;;;23.95;35.31
18569;BME280;14780;48.316;-1.050;2023-02-20T08:28:30;100266.25;;;23.94;35.25
18569;BME280;14780;48.316;-1.050;2023-02-20T08:31:16;100270.06;;;23.93;35.38
18569;BME280;14780;48.316;-1.050;2023-02-20T08:34:00;100268.50;;;23.97;35.28
18569;BME280;14780;48.316;-1.050;2023-02-20T08:36:45;100270.41;;;23.97;35.29
18569;BME280;14780;48.316;-1.050;2023-02-20T08:39:30;100257.56;;;23.97;35.23
18569;BME280;14780;48.316;-1.050;2023-02-20T08:42:16;100269.56;;;23.96;35.19
18569;BME280;14780;48.316;-1.050;2023-02-20T08:45:02;100266.84;;;23.96;35.34
18569;BME280;14780;48.316;-1.050;2023-02-20T08:47:48;100267.69;;;23.97;35.26
18569;BME280;14780;48.316;-1.050;2023-02-20T08:50:33;100266.59;;;23.98;35.30
18569;BME280;14780;48.316;-1.050;2023-02-20T08:53:18;100259.13;;;23.93;35.27
18569;BME280;14780;48.316;-1.050;2023-02-20T08:56:04;100271.84;;;23.99;35.32
18569;BME280;14780;48.316;-1.050;2023-02-20T08:58:49;100270.41;;;23.97;35.20
18569;BME280;14780;48.316;-1.050;2023-02-20T09:01:33;100268.66;;;23.91;35.28
18569;BME280;14780;48.316;-1.050;2023-02-20T09:04:18;100266.25;;;23.94;35.25
18569;BME280;14780;48.316;-1.050;2023-02-20T09:07:04;100274.47;;;23.94;35.18
18569;BME280;14780;48.316;-1.050;2023-02-20T09:09:49;100259.94;;;23.94;35.18
18569;BME280;14780;48.316;-1.050;2023-02-20T09:12:36;100260.44;;;23.91;35.23
18569;BME280;14780;48.316;-1.050;2023-02-20T09:15:25;100263.75;;;23.93;35.29
18569;BME280;14780;48.316;-1.050;2023-02-20T09:18:12;100251.50;;;23.95;35.17
18569;BME280;14780;48.316;-1.050;2023-02-20T09:20:57;100250.66;;;23.95;35.30
18569;BME280;14780;48.316;-1.050;2023-02-20T09:23:42;100242.22;;;23.96;35.25
18569;BME280;14780;48.316;-1.050;2023-02-20T09:26:27;100246.28;;;23.94;35.25
18569;BME280;14780;48.316;-1.050;2023-02-20T09:29:11;100248.53;;;23.97;35.28
18569;BME280;14780;48.316;-1.050;2023-02-20T09:31:57;100260.78;;;23.94;35.31
18569;BME280;14780;48.316;-1.050;2023-02-20T09:34:41;100245.47;;;23.93;35.39
18569;BME280;14780;48.316;-1.050;2023-02-20T09:37:27;100241.75;;;23.99;35.30
18569;BME280;14780;48.316;-1.050;2023-02-20T09:40:13;100237.59;;;23.97;35.26
18569;BME280;14780;48.316;-1.050;2023-02-20T09:46:16;100247.81;;;24.01;35.29
18569;BME280;14780;48.316;-1.050;2023-02-20T09:49:17;100255.44;;;23.99;35.29
18569;BME280;14780;48.316;-1.050;2023-02-20T09:52:08;100253.16;;;23.96;35.37
18569;BME280;14780;48.316;-1.050;2023-02-20T09:55:02;100245.53;;;23.98;35.43
18569;BME280;14780;48.316;-1.050;2023-02-20T09:57:49;100249.13;;;23.99;35.44
18569;BME280;14780;48.316;-1.050;2023-02-20T10:00:37;100248.28;;;23.98;35.57
18569;BME280;14780;48.316;-1.050;2023-02-20T10:03:36;100241.25;;;24.02;35.37
18569;BME280;14780;48.316;-1.050;2023-02-20T10:06:27;100246.72;;;24.02;35.35
18569;BME280;14780;48.316;-1.050;2023-02-20T10:09:14;100237.94;;;24.00;35.45
18569;BME280;14780;48.316;-1.050;2023-02-20T10:16:12;100245.66;;;24.03;35.50
18569;BME280;14780;48.316;-1.050;2023-02-20T10:27:55;100238.13;;;24.10;35.56
18569;BME280;14780;48.316;-1.050;2023-02-20T10:30:59;100230.41;;;24.07;35.65
18569;BME280;14780;48.316;-1.050;2023-02-20T10:34:12;100231.34;;;24.13;35.53
18569;BME280;14780;48.316;-1.050;2023-02-20T10:37:03;100233.81;;;24.14;35.50
18569;BME280;14780;48.316;-1.050;2023-02-20T10:39:58;100227.28;;;24.15;35.60
18569;BME280;14780;48.316;-1.050;2023-02-20T10:43:06;100217.16;;;24.16;35.56
18569;BME280;14780;48.316;-1.050;2023-02-20T10:49:01;100220.22;;;24.19;35.46
18569;BME280;14780;48.316;-1.050;2023-02-20T10:51:50;100210.88;;;24.15;35.46
18569;BME280;14780;48.316;-1.050;2023-02-20T10:54:44;100222.97;;;24.19;35.56
18569;BME280;14780;48.316;-1.050;2023-02-20T10:57:38;100219.16;;;24.20;35.50
18569;BME280;14780;48.316;-1.050;2023-02-20T11:00:37;100219.16;;;24.20;35.58
18569;BME280;14780;48.316;-1.050;2023-02-20T11:06:28;100208.81;;;24.22;35.52
18569;BME280;14780;48.316;-1.050;2023-02-20T11:09:13;100215.34;;;24.21;35.51
18569;BME280;14780;48.316;-1.050;2023-02-20T11:11:58;100205.00;;;24.23;35.45
18569;BME280;14780;48.316;-1.050;2023-02-20T11:14:45;100218.44;;;24.25;35.57
18569;BME280;14780;48.316;-1.050;2023-02-20T11:17:34;100219.22;;;24.25;35.41
18569;BME280;14780;48.316;-1.050;2023-02-20T11:23:41;100215.41;;;24.26;35.46
18569;BME280;14780;48.316;-1.050;2023-02-20T11:26:30;100211.59;;;24.27;35.53
18569;BME280;14780;48.316;-1.050;2023-02-20T11:29:20;100196.88;;;24.28;35.49
18569;BME280;14780;48.316;-1.050;2023-02-20T11:32:23;100190.31;;;24.29;35.49
18569;BME280;14780;48.316;-1.050;2023-02-20T11:43:46;100190.91;;;24.31;35.53
18569;BME280;14780;48.316;-1.050;2023-02-20T11:46:32;100181.59;;;24.32;35.54
18569;BME280;14780;48.316;-1.050;2023-02-20T11:49:28;100177.31;;;24.36;35.45
18569;BME280;14780;48.316;-1.050;2023-02-20T11:52:20;100178.72;;;24.39;35.51
18569;BME280;14780;48.316;-1.050;2023-02-20T11:55:19;100168.59;;;24.39;35.43
18569;BME280;14780;48.316;-1.050;2023-02-20T11:58:04;100163.69;;;24.41;35.46
18569;BME280;14780;48.316;-1.050;2023-02-20T12:00:55;100153.03;;;24.40;35.46
18569;BME280;14780;48.316;-1.050;2023-02-20T12:03:39;100151.09;;;24.40;35.46
18569;BME280;14780;48.316;-1.050;2023-02-20T12:06:41;100141.00;;;24.41;35.58
18569;BME280;14780;48.316;-1.050;2023-02-20T12:09:27;100137.75;;;24.44;35.56
18569;BME280;14780;48.316;-1.050;2023-02-20T12:12:14;100126.81;;;24.44;35.52
18569;BME280;14780;48.316;-1.050;2023-02-20T12:14:59;100133.91;;;24.45;35.39
18569;BME280;14780;48.316;-1.050;2023-02-20T12:20:35;100117.84;;;24.48;35.46
18569;BME280;14780;48.316;-1.050;2023-02-20T12:24:05;100113.44;;;24.47;35.38
18569;BME280;14780;48.316;-1.050;2023-02-20T12:26:59;100106.66;;;24.50;35.44
18569;BME280;14780;48.316;-1.050;2023-02-20T12:30:00;100103.09;;;24.49;35.32
18569;BME280;14780;48.316;-1.050;2023-02-20T12:32:53;100095.47;;;24.51;35.33
18569;BME280;14780;48.316;-1.050;2023-02-20T12:39:25;100096.03;;;24.53;35.35
18569;BME280;14780;48.316;-1.050;2023-02-20T12:42:26;100088.91;;;24.52;35.26
18569;BME280;14780;48.316;-1.050;2023-02-20T13:01:14;100057.88;;;24.63;35.20
18569;BME280;14780;48.316;-1.050;2023-02-20T13:04:17;100057.38;;;24.66;35.17
18569;BME280;14780;48.316;-1.050;2023-02-20T13:07:17;100053.88;;;24.71;35.30
18569;BME280;14780;48.316;-1.050;2023-02-20T13:10:12;100060.50;;;24.75;35.21
18569;BME280;14780;48.316;-1.050;2023-02-20T13:12:58;100047.38;;;24.77;35.15
18569;BME280;14780;48.316;-1.050;2023-02-20T13:16:07;100037.25;;;24.77;35.20
18569;BME280;14780;48.316;-1.050;2023-02-20T13:19:14;100035.44;;;24.83;35.05
18569;BME280;14780;48.316;-1.050;2023-02-20T13:22:01;100029.44;;;24.86;35.13
18569;BME280;14780;48.316;-1.050;2023-02-20T13:24:46;100029.75;;;24.89;35.23
18569;BME280;14780;48.316;-1.050;2023-02-20T13:27:31;100024.59;;;24.93;35.13
18569;BME280;14780;48.316;-1.050;2023-02-20T13:30:20;100018.31;;;24.97;35.09
18569;BME280;14780;48.316;-1.050;2023-02-20T13:33:22;100016.47;;;25.03;35.00
18569;BME280;14780;48.316;-1.050;2023-02-20T13:42:31;100002.91;;;25.13;35.00
18569;BME280;14780;48.316;-1.050;2023-02-20T13:45:36;99992.25;;;25.16;34.92
18569;BME280;14780;48.316;-1.050;2023-02-20T13:54:19;99972.94;;;25.28;34.87
18569;BME280;14780;48.316;-1.050;2023-02-20T13:57:17;99966.13;;;25.30;34.90
18569;BME280;14780;48.316;-1.050;2023-02-20T14:00:07;99962.84;;;25.33;34.86
18569;BME280;14780;48.316;-1.050;2023-02-20T14:03:08;99959.59;;;25.36;34.94
18569;BME280;14780;48.316;-1.050;2023-02-20T14:06:07;99959.06;;;25.39;34.70
18569;BME280;14780;48.316;-1.050;2023-02-20T14:09:12;99956.06;;;25.41;34.82
18569;BME280;14780;48.316;-1.050;2023-02-20T14:12:12;99946.75;;;25.42;34.71
18569;BME280;14780;48.316;-1.050;2023-02-20T14:14:58;99947.06;;;25.45;34.72
18569;BME280;14780;48.316;-1.050;2023-02-20T14:17:46;99942.38;;;25.46;34.71
18569;BME280;14780;48.316;-1.050;2023-02-20T14:20:35;99932.03;;;25.48;34.68
18569;BME280;14780;48.316;-1.050;2023-02-20T14:23:23;99927.94;;;25.50;34.59
18569;BME280;14780;48.316;-1.050;2023-02-20T14:26:33;99929.59;;;25.51;34.67
18569;BME280;14780;48.316;-1.050;2023-02-20T14:32:13;99924.41;;;25.55;34.61
18569;BME280;14780;48.316;-1.050;2023-02-20T14:41:17;99920.56;;;25.56;34.51
18569;BME280;14780;48.316;-1.050;2023-02-20T14:44:05;99918.63;;;25.56;34.29
18569;BME280;14780;48.316;-1.050;2023-02-20T14:47:01;99924.13;;;25.56;34.31
18569;BME280;14780;48.316;-1.050;2023-02-20T14:49:49;99914.00;;;25.57;34.52
18569;BME280;14780;48.316;-1.050;2023-02-20T14:52:34;99904.13;;;25.56;34.28
18569;BME280;14780;48.316;-1.050;2023-02-20T14:55:18;99902.19;;;25.56;34.40
18569;BME280;14780;48.316;-1.050;2023-02-20T14:58:07;99899.44;;;25.56;34.31
18569;BME280;14780;48.316;-1.050;2023-02-20T15:00:54;99903.81;;;25.52;34.08
18569;BME280;14780;48.316;-1.050;2023-02-20T15:03:41;99903.28;;;25.55;34.28
18569;BME280;14780;48.316;-1.050;2023-02-20T15:06:28;99892.06;;;25.57;34.36
18569;BME280;14780;48.316;-1.050;2023-02-20T15:09:14;99880.56;;;25.55;34.35
18569;BME280;14780;48.316;-1.050;2023-02-20T15:11:59;99875.88;;;25.55;34.23
18569;BME280;14780;48.316;-1.050;2023-02-20T15:14:44;99874.22;;;25.54;34.27
18569;BME280;14780;48.316;-1.050;2023-02-20T15:17:37;99872.88;;;25.57;34.22
18569;BME280;14780;48.316;-1.050;2023-02-20T15:23:23;99873.72;;;25.57;34.15
18569;BME280;14780;48.316;-1.050;2023-02-20T15:26:34;99860.28;;;25.56;34.18
18569;BME280;14780;48.316;-1.050;2023-02-20T15:29:26;99862.19;;;25.55;34.11
18569;BME280;14780;48.316;-1.050;2023-02-20T15:32:20;99859.97;;;25.52;34.16
18569;BME280;14780;48.316;-1.050;2023-02-20T15:35:11;99861.38;;;25.55;34.26
18569;BME280;14780;48.316;-1.050;2023-02-20T15:38:00;99870.97;;;25.57;34.01
18569;BME280;14780;48.316;-1.050;2023-02-20T15:40:46;99868.78;;;25.59;34.16
18569;BME280;14780;48.316;-1.050;2023-02-20T15:43:31;99868.25;;;25.57;34.06
18569;BME280;14780;48.316;-1.050;2023-02-20T15:46:16;99860.56;;;25.59;34.06
18569;BME280;14780;48.316;-1.050;2023-02-20T15:49:02;99860.00;;;25.57;34.09
18569;BME280;14780;48.316;-1.050;2023-02-20T15:51:49;99864.97;;;25.60;34.12
18569;BME280;14780;48.316;-1.050;2023-02-20T15:54:34;99858.38;;;25.61;34.05
18569;BME280;14780;48.316;-1.050;2023-02-20T15:57:19;99854.25;;;25.59;33.83
18569;BME280;14780;48.316;-1.050;2023-02-20T16:00:04;99859.72;;;25.59;33.84
18569;BME280;14780;48.316;-1.050;2023-02-20T16:02:50;99854.78;;;25.56;33.96
18569;BME280;14780;48.316;-1.050;2023-02-20T16:05:35;99850.13;;;25.56;33.96
18569;BME280;14780;48.316;-1.050;2023-02-20T16:08:21;99854.25;;;25.59;33.97
18569;BME280;14780;48.316;-1.050;2023-02-20T16:11:06;99848.78;;;25.59;36.24
18569;BME280;14780;48.316;-1.050;2023-02-20T16:13:59;99844.41;;;26.09;34.31
18569;BME280;14780;48.316;-1.050;2023-02-20T16:16:47;99842.19;;;26.01;34.04
18569;BME280;14780;48.316;-1.050;2023-02-20T16:19:34;99834.88;;;26.37;33.25
18569;BME280;14780;48.316;-1.050;2023-02-20T16:22:20;99834.88;;;26.47;33.02